Terminal Aerodrome Forecast
Issued by NWS Paducah, KY

Home | Current Version | Previous Version | Text Only | Print | Product List | Glossary On
Versions: 1 2 3 4 5 6 7 8 9 10 11 12 13 14 15
000
FTUS43 KPAH 242332
TAFEVV
TAF
KEVV 242332Z 2500/2524 16006KT P6SM BKN060 OVC100
     FM250300 14005KT P6SM BKN030
     FM250600 15007KT 5SM -SHRA BR OVC012
     FM251400 17010KT 4SM -SHRA BR BKN020
     FM251900 23013KT P6SM BKN035
      TEMPO 2520/2524 VRB20G40KT 1SM TSRA BR OVC010CB=

USA.gov is the U.S. government's official web portal to all federal, state and local government web resources and services.